Time;durP1;ratioP1;P1;durP2;ratioP2;P2;SDS_P1;SDS_P2;PMS_P1;PMS_P2;Temp;Humidity;BMP_temperature;BMP_pressure;BME280_temperature;BME280_humidity;BME280_pressure;Samples;Min_cycle;Max_cycle;Signal;HPM_P1;HPM_P2
2023/11/03 00:02:12;;;;;;;1.33;0.50;;;;;;;19.30;48.11;97716.56;5027122;28;20033;-67
2023/11/03 00:04:38;;;;;;;1.50;0.60;;;;;;;19.28;47.93;97708.06;5026532;28;20033;-67
2023/11/03 00:07:08;;;;;;;1.85;0.50;;;;;;;19.28;48.02;97708.06;5008502;28;20076;-68
2023/11/03 00:09:37;;;;;;;1.20;0.40;;;;;;;19.27;48.16;97710.91;5026265;28;20034;-67
2023/11/03 00:12:03;;;;;;;2.35;0.73;;;;;;;19.20;47.98;97703.81;5026727;28;20037;-67
2023/11/03 00:14:29;;;;;;;1.40;0.57;;;;;;;19.25;47.96;97721.66;5009113;28;20409;-67
2023/11/03 00:16:56;;;;;;;1.45;0.40;;;;;;;19.25;47.87;97720.84;5026229;28;21357;-66
2023/11/03 00:19:22;;;;;;;1.50;0.50;;;;;;;19.23;47.99;97717.59;5026096;28;20033;-67
2023/11/03 00:21:47;;;;;;;1.17;0.47;;;;;;;19.22;48.04;97722.06;5026295;28;20029;-68
2023/11/03 00:24:14;;;;;;;1.75;0.50;;;;;;;19.22;48.04;97724.72;5026396;28;20532;-67
2023/11/03 00:26:40;;;;;;;1.00;0.40;;;;;;;19.21;47.77;97723.09;5026259;28;20390;-66
2023/11/03 00:29:07;;;;;;;2.63;0.65;;;;;;;19.19;47.98;97719.84;5025494;28;20112;-67
2023/11/03 00:31:32;;;;;;;1.75;0.55;;;;;;;19.19;47.87;97717.22;5026025;28;20052;-67
2023/11/03 00:33:58;;;;;;;0.70;0.35;;;;;;;19.17;48.02;97709.50;5026150;28;20069;-66
2023/11/03 00:36:23;;;;;;;1.53;0.50;;;;;;;19.18;47.99;97734.06;5026300;28;20112;-68
2023/11/03 00:38:50;;;;;;;1.05;0.50;;;;;;;19.16;47.61;97736.09;5026056;28;20381;-67
2023/11/03 00:41:16;;;;;;;1.95;0.50;;;;;;;19.17;47.93;97740.38;5026338;28;20505;-67
2023/11/03 00:43:43;;;;;;;1.73;0.40;;;;;;;19.16;47.82;97762.50;5026189;28;20033;-67
2023/11/03 00:46:08;;;;;;;1.08;0.43;;;;;;;19.15;47.72;97766.97;5026629;28;20025;-67
2023/11/03 00:48:33;;;;;;;1.60;0.50;;;;;;;19.14;47.72;97761.91;5026629;28;20040;-69
2023/11/03 00:50:59;;;;;;;1.25;0.50;;;;;;;19.15;47.65;97764.34;5026570;28;20108;-67
2023/11/03 00:53:24;;;;;;;1.05;0.30;;;;;;;19.12;47.80;97771.81;5025609;28;20021;-68
2023/11/03 00:55:49;;;;;;;1.00;0.40;;;;;;;19.13;47.50;97778.75;5026643;28;20124;-67
2023/11/03 00:58:15;;;;;;;1.13;0.40;;;;;;;19.13;47.75;97776.09;5026517;28;20504;-68
2023/11/03 01:00:41;;;;;;;1.23;0.50;;;;;;;19.12;47.51;97777.09;5026588;28;20348;-68
2023/11/03 01:03:07;;;;;;;1.27;0.50;;;;;;;19.12;47.73;97792.94;5026210;28;20033;-68
2023/11/03 01:05:33;;;;;;;1.27;0.50;;;;;;;19.10;47.51;97785.22;5026426;28;20504;-67
2023/11/03 01:07:59;;;;;;;1.48;0.50;;;;;;;19.09;47.41;97791.53;5026177;28;20046;-67
2023/11/03 01:10:24;;;;;;;2.03;0.50;;;;;;;19.08;47.45;97789.09;5026642;28;20065;-67
2023/11/03 01:12:52;;;;;;;1.40;0.40;;;;;;;19.07;47.45;97793.56;5029802;28;20030;-66
2023/11/03 01:15:19;;;;;;;1.48;0.50;;;;;;;19.08;47.32;97810.22;5030847;28;20029;-67
2023/11/03 01:17:49;;;;;;;1.33;0.50;;;;;;;19.06;47.36;97807.78;5030424;28;20048;-67
2023/11/03 01:20:19;;;;;;;1.45;0.40;;;;;;;19.06;47.58;97805.16;5030249;28;20362;-68
2023/11/03 01:22:48;;;;;;;1.63;0.55;;;;;;;19.04;47.24;97804.53;5029055;28;20041;-66
2023/11/03 01:25:15;;;;;;;1.48;0.50;;;;;;;19.05;47.45;97808.78;5030202;28;20037;-67
2023/11/03 01:27:42;;;;;;;1.00;0.40;;;;;;;19.03;47.37;97802.91;5030148;28;20029;-67
2023/11/03 01:30:09;;;;;;;1.65;0.40;;;;;;;19.02;47.33;97802.09;5029566;28;20085;-68
2023/11/03 01:32:35;;;;;;;1.80;0.50;;;;;;;19.03;47.49;97802.91;5029096;28;20034;-66
2023/11/03 01:35:00;;;;;;;2.03;0.60;;;;;;;19.01;47.23;97802.31;5029661;28;20060;-66
2023/11/03 01:37:26;;;;;;;1.38;0.50;;;;;;;18.99;47.33;97797.25;5028733;28;20065;-67
2023/11/03 01:39:51;;;;;;;0.67;0.40;;;;;;;19.00;46.79;97803.31;5044701;28;20064;-66
2023/11/03 01:42:16;;;;;;;1.10;0.50;;;;;;;19.00;47.27;97813.88;5029553;28;20258;-67
2023/11/03 01:44:42;;;;;;;1.33;0.60;;;;;;;19.00;47.20;97809.41;5029793;28;20719;-66
2023/11/03 01:47:07;;;;;;;1.48;0.50;;;;;;;18.99;47.22;97806.97;5029126;28;20462;-66
2023/11/03 01:49:32;;;;;;;2.00;0.50;;;;;;;18.98;47.17;97808.81;5029766;28;20026;-67
2023/11/03 01:51:58;;;;;;;1.73;0.50;;;;;;;18.98;47.32;97808.00;5029791;28;20410;-67
2023/11/03 01:54:24;;;;;;;1.58;0.60;;;;;;;18.97;47.32;97817.72;5029497;28;20028;-66
2023/11/03 01:56:51;;;;;;;1.42;0.50;;;;;;;18.97;47.13;97827.47;5029781;28;20025;-67
2023/11/03 01:59:18;;;;;;;1.20;0.50;;;;;;;18.97;47.14;97840.66;5029314;28;20057;-68
2023/11/03 02:01:46;;;;;;;1.25;0.50;;;;;;;18.94;47.08;97826.03;5029544;28;20021;-66
2023/11/03 02:04:12;;;;;;;1.10;0.50;;;;;;;18.94;47.06;97833.16;5029370;28;20040;-68
2023/11/03 02:06:37;;;;;;;1.42;0.52;;;;;;;18.93;47.12;97834.16;5029474;28;20029;-67
2023/11/03 02:09:05;;;;;;;1.33;0.50;;;;;;;18.94;46.92;97835.81;5029555;28;20033;-67
2023/11/03 02:11:31;;;;;;;0.75;0.40;;;;;;;18.93;47.16;97850.81;5029336;28;20063;-68
2023/11/03 02:13:57;;;;;;;1.20;0.40;;;;;;;18.94;47.00;97844.50;5029882;28;20074;-67
2023/11/03 02:16:23;;;;;;;1.33;0.50;;;;;;;18.92;46.99;97861.59;5029503;28;20072;-68
2023/11/03 02:18:50;;;;;;;1.40;0.50;;;;;;;18.91;47.03;97858.13;5029150;28;20075;-67
2023/11/03 02:21:16;;;;;;;1.77;0.50;;;;;;;18.92;46.90;97862.38;5029340;28;20484;-66
2023/11/03 02:23:41;;;;;;;1.75;0.50;;;;;;;18.89;46.91;97851.44;5029263;28;20116;-66
2023/11/03 02:26:06;;;;;;;1.55;0.50;;;;;;;18.91;47.01;97863.38;5029296;28;20036;-69
2023/11/03 02:28:32;;;;;;;1.75;0.60;;;;;;;18.91;46.62;97865.22;5029035;28;20041;-67
2023/11/03 02:30:57;;;;;;;0.85;0.43;;;;;;;18.91;47.00;97870.50;5028609;28;20026;-69
2023/11/03 02:33:22;;;;;;;1.40;0.50;;;;;;;18.90;46.73;97864.41;5027941;28;20440;-67
2023/11/03 02:35:48;;;;;;;2.60;0.77;;;;;;;18.87;46.92;97866.63;5010624;28;20045;-67
2023/11/03 02:38:16;;;;;;;2.00;0.60;;;;;;;18.89;47.01;97877.81;5028378;28;20029;-68
2023/11/03 02:40:45;;;;;;;2.45;0.52;;;;;;;18.88;46.96;97868.25;5028480;28;20029;-66
2023/11/03 02:43:10;;;;;;;1.95;0.60;;;;;;;18.88;46.85;97876.97;5028206;28;20037;-67
2023/11/03 02:45:35;;;;;;;2.58;0.70;;;;;;;18.86;47.05;97881.66;5028422;28;20041;-67
2023/11/03 02:48:00;;;;;;;0.98;0.50;;;;;;;18.87;46.90;97882.47;5028682;28;20033;-67
2023/11/03 02:50:26;;;;;;;2.60;0.90;;;;;;;18.85;46.89;97878.22;5028516;28;20033;-66
2023/11/03 02:52:51;;;;;;;1.52;0.50;;;;;;;18.83;46.82;97872.31;5028795;28;20274;-67
2023/11/03 02:55:16;;;;;;;2.15;0.60;;;;;;;18.84;46.46;97884.50;5028962;28;20033;-68
2023/11/03 02:57:42;;;;;;;2.38;0.63;;;;;;;18.84;47.04;97879.22;5028144;28;20037;-67
2023/11/03 03:00:07;;;;;;;2.53;0.80;;;;;;;18.84;46.87;97881.84;5028246;28;20037;-65
2023/11/03 03:02:33;;;;;;;2.25;0.70;;;;;;;18.84;46.60;97878.41;5027874;28;20025;-65
2023/11/03 03:04:58;;;;;;;0.85;0.40;;;;;;;18.82;46.91;97878.59;5028194;28;20096;-66
2023/11/03 03:07:23;;;;;;;3.43;0.70;;;;;;;18.82;46.78;97894.41;5028010;28;20021;-66
2023/11/03 03:09:48;;;;;;;1.92;0.60;;;;;;;18.82;46.69;97906.81;5028427;28;20268;-66
2023/11/03 03:12:16;;;;;;;2.00;0.63;;;;;;;18.81;46.76;97905.16;5028203;28;20025;-65
2023/11/03 03:14:41;;;;;;;2.42;0.60;;;;;;;18.81;46.73;97910.44;5028011;28;20337;-67
2023/11/03 03:17:06;;;;;;;2.37;0.70;;;;;;;18.80;46.94;97912.28;5028815;28;20117;-66
2023/11/03 03:19:32;;;;;;;2.67;0.60;;;;;;;18.80;46.74;97900.91;5028616;28;20259;-67
2023/11/03 03:21:57;;;;;;;1.52;0.60;;;;;;;18.79;46.85;97908.00;5028518;28;20059;-67
2023/11/03 03:24:22;;;;;;;2.28;0.73;;;;;;;18.81;46.84;97907.81;5028449;28;20033;-67
2023/11/03 03:26:48;;;;;;;2.75;0.70;;;;;;;18.78;46.80;97903.72;5028489;28;20037;-67
2023/11/03 03:29:13;;;;;;;1.60;0.53;;;;;;;18.78;46.66;97924.84;5028497;28;20091;-66
2023/11/03 03:31:38;;;;;;;1.95;0.70;;;;;;;18.79;46.70;97918.56;5027563;28;20259;-68
2023/11/03 03:34:03;;;;;;;1.77;0.60;;;;;;;18.77;46.89;97936.44;5027241;28;20099;-67
2023/11/03 03:36:29;;;;;;;2.63;0.75;;;;;;;18.77;46.82;97910.03;5027479;28;20484;-66
2023/11/03 03:38:54;;;;;;;2.72;0.60;;;;;;;18.75;46.70;97938.44;5027848;28;20033;-67
2023/11/03 03:41:19;;;;;;;2.80;0.60;;;;;;;18.76;46.83;97937.44;5027760;28;20536;-67
2023/11/03 03:43:45;;;;;;;3.33;0.80;;;;;;;18.76;46.77;97939.25;5028092;28;20034;-67
2023/11/03 03:46:11;;;;;;;3.47;0.82;;;;;;;18.76;46.85;97945.34;5027539;28;20797;-68
2023/11/03 03:48:36;;;;;;;2.22;0.70;;;;;;;18.74;46.84;97946.53;5027751;28;20048;-67
2023/11/03 03:51:01;;;;;;;2.47;0.82;;;;;;;18.74;46.71;97957.94;5027510;28;20041;-68
2023/11/03 03:53:27;;;;;;;3.42;0.70;;;;;;;18.75;46.92;97950.81;5027507;28;20034;-66
2023/11/03 03:55:52;;;;;;;2.90;0.73;;;;;;;18.75;47.10;97964.00;5026597;28;20030;-66
2023/11/03 03:58:18;;;;;;;2.22;0.50;;;;;;;18.75;46.94;97970.09;5027621;28;20124;-66
2023/11/03 04:00:43;;;;;;;2.70;0.70;;;;;;;18.75;46.79;97970.09;5026676;28;20045;-66
2023/11/03 04:03:09;;;;;;;1.77;0.57;;;;;;;18.75;46.86;97971.91;5026626;28;20113;-66
2023/11/03 04:05:34;;;;;;;3.15;0.90;;;;;;;18.76;46.92;97976.19;5026216;28;20036;-66
2023/11/03 04:08:00;;;;;;;2.35;0.85;;;;;;;18.76;47.09;97978.84;5026584;28;20104;-66
2023/11/03 04:10:25;;;;;;;2.40;0.68;;;;;;;18.75;46.92;97978.00;5027006;28;20462;-66
2023/11/03 04:12:50;;;;;;;2.97;0.70;;;;;;;18.74;46.90;97984.31;5026503;28;20036;-67
2023/11/03 04:15:16;;;;;;;2.72;0.63;;;;;;;18.74;47.00;97983.47;5026598;28;20520;-66
2023/11/03 04:17:41;;;;;;;3.00;0.85;;;;;;;18.74;47.00;97984.31;5026370;28;20021;-66
2023/11/03 04:20:08;;;;;;;2.38;0.70;;;;;;;18.74;47.10;97986.09;5027150;28;20451;-67
2023/11/03 04:22:34;;;;;;;1.92;0.63;;;;;;;18.73;46.98;97982.66;5026945;28;20382;-67
2023/11/03 04:24:59;;;;;;;3.10;0.75;;;;;;;18.72;46.96;97985.50;5026855;28;20462;-67
2023/11/03 04:27:24;;;;;;;3.42;0.80;;;;;;;18.72;47.08;97991.59;5026876;28;20033;-66
2023/11/03 04:29:49;;;;;;;2.40;0.70;;;;;;;18.71;46.97;97981.22;5026521;28;20114;-67
2023/11/03 04:32:15;;;;;;;2.17;0.70;;;;;;;18.71;47.00;97983.88;5027053;28;20041;-69
2023/11/03 04:34:40;;;;;;;2.50;0.70;;;;;;;18.72;46.97;97988.94;5026904;28;20068;-67
2023/11/03 04:37:05;;;;;;;2.40;0.80;;;;;;;18.71;47.03;97989.97;5026974;28;20034;-68
2023/11/03 04:39:31;;;;;;;3.30;0.80;;;;;;;18.71;46.92;97983.88;5026758;28;20266;-68
2023/11/03 04:41:56;;;;;;;3.85;0.95;;;;;;;18.70;46.96;97992.81;5026882;28;20033;-68
2023/11/03 04:44:21;;;;;;;2.33;0.80;;;;;;;18.68;47.02;97991.16;5026651;28;20037;-67
2023/11/03 04:46:46;;;;;;;3.15;0.90;;;;;;;18.68;47.06;97993.81;5025472;28;20117;-68
2023/11/03 04:49:12;;;;;;;2.63;0.70;;;;;;;18.69;46.90;97991.97;5026938;28;20033;-67
2023/11/03 04:51:38;;;;;;;3.03;0.80;;;;;;;18.68;46.99;97991.16;5026609;28;20025;-67
2023/11/03 04:54:04;;;;;;;2.75;0.70;;;;;;;18.68;47.04;97999.09;5026593;28;20041;-67
2023/11/03 04:56:29;;;;;;;2.88;0.60;;;;;;;18.68;47.08;98000.91;5026516;28;20128;-67
2023/11/03 04:58:54;;;;;;;2.65;0.85;;;;;;;18.66;47.10;97995.84;5026494;28;20394;-66
2023/11/03 05:01:20;;;;;;;2.07;0.60;;;;;;;18.66;47.13;97998.47;5026325;28;20446;-66
2023/11/03 05:03:45;;;;;;;1.67;0.70;;;;;;;18.65;47.07;97999.47;5026454;28;20254;-66
2023/11/03 05:06:11;;;;;;;3.42;0.90;;;;;;;18.67;47.32;98008.03;5025631;28;20029;-66
2023/11/03 05:08:36;;;;;;;2.55;1.00;;;;;;;18.66;47.07;97993.19;5026342;28;20025;-66
2023/11/03 05:11:02;;;;;;;4.55;0.80;;;;;;;18.65;47.19;98004.75;5025215;28;20120;-67
2023/11/03 05:13:27;;;;;;;2.75;0.70;;;;;;;18.63;47.00;97998.88;5025825;28;20025;-67
2023/11/03 05:15:52;;;;;;;1.88;0.68;;;;;;;18.63;47.18;98006.78;5025925;28;20055;-66
2023/11/03 05:18:18;;;;;;;4.70;0.93;;;;;;;18.62;47.23;98001.69;5026199;28;20065;-67
2023/11/03 05:20:43;;;;;;;2.53;0.70;;;;;;;18.63;47.21;97993.59;5025687;28;20485;-67
2023/11/03 05:23:08;;;;;;;2.47;0.73;;;;;;;18.62;47.29;98004.34;5025620;28;20301;-67
2023/11/03 05:25:34;;;;;;;3.08;0.88;;;;;;;18.62;47.12;97997.22;5025729;28;20029;-68
2023/11/03 05:27:59;;;;;;;3.88;0.90;;;;;;;18.63;47.47;97992.78;5007953;28;20064;-67
2023/11/03 05:30:25;;;;;;;3.17;0.70;;;;;;;18.60;47.14;97993.19;5025315;28;20022;-67
2023/11/03 05:32:50;;;;;;;3.13;1.00;;;;;;;18.61;47.30;98013.25;5026183;28;20277;-66
2023/11/03 05:35:15;;;;;;;3.17;0.75;;;;;;;18.62;47.23;98010.41;5025912;28;20037;-68
2023/11/03 05:37:41;;;;;;;3.45;0.90;;;;;;;18.63;47.44;98016.53;5025822;28;20371;-65
2023/11/03 05:40:11;;;;;;;4.55;0.82;;;;;;;18.62;47.43;98023.59;5026524;28;20492;-69
2023/11/03 05:42:36;;;;;;;2.83;0.90;;;;;;;18.64;47.38;98020.78;5025664;28;20032;-65
2023/11/03 05:45:02;;;;;;;3.95;0.73;;;;;;;18.63;47.17;98024.44;5026110;28;20025;-65
2023/11/03 05:47:28;;;;;;;2.15;0.80;;;;;;;18.63;47.36;98024.44;5024803;28;20049;-65
2023/11/03 05:49:53;;;;;;;2.97;0.82;;;;;;;18.62;47.34;98033.34;5025960;28;20030;-66
2023/11/03 05:52:19;;;;;;;2.60;0.80;;;;;;;18.61;47.34;98037.81;5026110;28;20044;-67
2023/11/03 05:54:44;;;;;;;3.05;0.90;;;;;;;18.60;47.44;98036.19;5025919;28;20041;-64
2023/11/03 05:57:10;;;;;;;3.53;1.02;;;;;;;18.61;47.29;98032.56;5026080;28;20061;-66
2023/11/03 05:59:35;;;;;;;4.60;1.02;;;;;;;18.61;47.11;98039.63;5028970;28;20108;-66
2023/11/03 06:02:00;;;;;;;2.65;0.80;;;;;;;18.59;47.25;98045.09;5030151;28;20477;-66
2023/11/03 06:04:26;;;;;;;2.70;0.80;;;;;;;18.60;47.10;98057.28;5029781;28;20070;-66
2023/11/03 06:06:51;;;;;;;2.50;0.65;;;;;;;18.58;47.06;98048.75;5029757;28;20063;-65
2023/11/03 06:09:17;;;;;;;3.15;0.90;;;;;;;18.58;47.22;98047.94;5029826;28;20021;-66
2023/11/03 06:11:42;;;;;;;2.75;0.80;;;;;;;18.58;47.27;98054.03;5029652;28;20030;-67
2023/11/03 06:14:07;;;;;;;2.78;0.80;;;;;;;18.60;47.28;98067.03;5029643;28;20029;-65
2023/11/03 06:16:35;;;;;;;3.53;0.98;;;;;;;18.59;47.34;98060.91;5029444;28;20026;-67
2023/11/03 06:19:01;;;;;;;3.15;0.80;;;;;;;18.58;48.01;98069.88;5029408;28;20560;-66
2023/11/03 06:21:28;;;;;;;3.33;1.00;;;;;;;18.59;47.94;98068.03;5029206;28;20033;-65
2023/11/03 06:23:54;;;;;;;2.97;0.88;;;;;;;18.57;48.03;98081.41;5029055;28;20331;-66
2023/11/03 06:26:19;;;;;;;2.00;0.80;;;;;;;18.58;48.31;98087.50;5029146;28;20045;-65
2023/11/03 06:28:44;;;;;;;2.88;0.80;;;;;;;18.57;48.32;98091.16;5028853;28;20165;-66
2023/11/03 06:31:10;;;;;;;3.53;0.88;;;;;;;18.57;48.72;98099.06;5029523;28;20120;-66
2023/11/03 06:33:35;;;;;;;2.67;0.70;;;;;;;18.55;48.85;98101.06;5028100;28;20045;-67
2023/11/03 06:36:02;;;;;;;4.82;0.93;;;;;;;18.57;48.57;98099.88;5028494;28;20048;-67
2023/11/03 06:38:29;;;;;;;2.85;0.90;;;;;;;18.58;48.50;98105.94;5027934;28;20489;-67
2023/11/03 06:40:55;;;;;;;2.78;1.00;;;;;;;18.59;48.44;98105.75;5028006;28;20384;-69
2023/11/03 06:43:20;;;;;;;2.00;0.60;;;;;;;18.62;48.31;98108.00;5028279;28;20027;-67
2023/11/03 06:45:45;;;;;;;2.47;0.82;;;;;;;18.66;48.32;98125.09;5028284;28;20360;-67
2023/11/03 06:48:11;;;;;;;3.50;0.80;;;;;;;18.66;48.37;98124.28;5028220;28;20034;-67
2023/11/03 06:50:36;;;;;;;3.33;0.82;;;;;;;18.68;48.18;98120.44;5028147;28;20026;-68
2023/11/03 06:53:02;;;;;;;3.33;0.70;;;;;;;18.72;48.13;98127.97;5027964;28;20028;-68
2023/11/03 06:55:29;;;;;;;2.72;0.65;;;;;;;18.72;48.36;98117.41;5027826;28;20032;-68
2023/11/03 06:57:55;;;;;;;2.55;0.70;;;;;;;18.75;48.26;98117.81;5027574;28;20044;-67
2023/11/03 07:00:20;;;;;;;3.20;0.70;;;;;;;18.75;48.06;98127.56;5027728;28;20037;-67
2023/11/03 07:02:46;;;;;;;3.03;0.82;;;;;;;18.77;48.26;98134.28;5027669;28;20036;-66
2023/11/03 07:05:11;;;;;;;1.85;0.52;;;;;;;18.79;48.31;98134.09;5028707;28;20036;-67
2023/11/03 07:07:37;;;;;;;1.80;0.70;;;;;;;18.81;48.17;98145.28;5028468;28;20108;-67
2023/11/03 07:10:03;;;;;;;3.33;1.00;;;;;;;18.81;48.16;98140.78;5027375;28;20025;-67
2023/11/03 07:12:30;;;;;;;2.58;0.85;;;;;;;18.82;48.25;98149.56;5025315;28;20450;-70
2023/11/03 07:14:56;;;;;;;2.33;0.70;;;;;;;18.83;48.16;98154.63;5028122;28;20112;-66
2023/11/03 07:17:21;;;;;;;3.83;0.68;;;;;;;18.84;48.23;98164.19;5028521;28;20146;-67
2023/11/03 07:19:47;;;;;;;3.05;0.80;;;;;;;18.84;48.16;98164.19;5028209;28;20488;-67
2023/11/03 07:22:15;;;;;;;2.80;0.80;;;;;;;18.86;48.22;98174.56;5028130;28;20458;-66
2023/11/03 07:24:41;;;;;;;2.70;0.80;;;;;;;18.84;47.81;98174.75;5027883;28;20037;-68
2023/11/03 07:27:06;;;;;;;3.17;0.65;;;;;;;18.84;48.09;98182.66;5027783;28;20033;-66
2023/11/03 07:29:32;;;;;;;2.83;0.82;;;;;;;18.84;48.12;98177.38;5028117;28;20099;-68
2023/11/03 07:31:57;;;;;;;2.70;0.60;;;;;;;18.84;48.10;98173.94;5028110;28;20041;-65
2023/11/03 07:34:22;;;;;;;3.03;0.90;;;;;;;18.83;48.13;98178.38;5027493;28;20395;-69
2023/11/03 07:36:47;;;;;;;2.95;0.80;;;;;;;18.83;48.16;98180.19;5028019;28;20282;-66
2023/11/03 07:39:14;;;;;;;2.28;0.77;;;;;;;18.85;48.30;98188.78;5027676;28;20057;-66
2023/11/03 07:41:39;;;;;;;3.60;0.88;;;;;;;18.85;47.90;98180.84;5027555;28;20116;-64
2023/11/03 07:44:07;;;;;;;3.33;0.70;;;;;;;18.89;48.34;98191.84;5027431;28;20100;-65
2023/11/03 07:46:33;;;;;;;1.92;0.55;;;;;;;18.86;48.01;98193.03;5027677;28;20036;-65
2023/11/03 07:49:01;;;;;;;2.85;0.70;;;;;;;18.86;48.22;98198.31;5027790;28;20029;-66
2023/11/03 07:51:27;;;;;;;3.00;0.88;;;;;;;18.83;48.41;98196.84;5027346;28;20045;-65
2023/11/03 07:53:53;;;;;;;2.08;0.70;;;;;;;18.85;48.47;98208.06;5027025;28;20460;-66
2023/11/03 07:56:18;;;;;;;3.03;0.80;;;;;;;18.89;48.33;98207.66;5027144;28;20033;-64
2023/11/03 07:58:45;;;;;;;3.55;0.80;;;;;;;18.88;48.39;98209.47;5027326;28;20394;-65
2023/11/03 08:01:11;;;;;;;2.97;0.82;;;;;;;18.85;48.73;98221.25;5027173;28;20113;-65
2023/11/03 08:03:36;;;;;;;3.60;1.00;;;;;;;18.84;48.99;98218.78;5026432;28;20458;-65
2023/11/03 08:06:02;;;;;;;3.13;0.80;;;;;;;18.87;49.00;98226.34;5041970;28;20029;-65
2023/11/03 08:08:27;;;;;;;3.92;0.90;;;;;;;18.87;48.97;98225.50;5026863;28;20070;-67
2023/11/03 08:10:52;;;;;;;3.65;0.80;;;;;;;18.88;49.24;98219.22;5026554;28;20598;-65
2023/11/03 08:13:22;;;;;;;3.55;0.75;;;;;;;18.88;49.15;98225.31;5026476;28;20143;-64
2023/11/03 08:15:56;;;;;;;5.20;0.85;;;;;;;18.86;49.50;98224.69;5026613;28;20078;-65
2023/11/03 08:18:21;;;;;;;3.75;0.82;;;;;;;18.87;49.36;98231.59;5026570;28;20100;-65
2023/11/03 08:20:47;;;;;;;3.05;0.88;;;;;;;18.90;49.19;98244.41;5026183;28;20159;-65
2023/11/03 08:23:16;;;;;;;4.18;0.70;;;;;;;18.88;49.45;98240.34;5026333;28;20034;-67
2023/11/03 08:25:43;;;;;;;3.70;0.85;;;;;;;18.91;49.50;98245.22;5026695;28;20056;-64
2023/11/03 08:28:12;;;;;;;4.43;1.02;;;;;;;18.90;49.34;98240.94;5024876;28;20022;-65
2023/11/03 08:30:39;;;;;;;3.05;0.82;;;;;;;18.90;49.56;98241.78;5025960;28;20044;-65
2023/11/03 08:33:06;;;;;;;4.20;1.20;;;;;;;18.90;49.42;98247.06;5025484;28;20116;-67
2023/11/03 08:35:31;;;;;;;4.45;1.05;;;;;;;18.91;49.67;98240.75;5026317;28;20039;-65
2023/11/03 08:37:57;;;;;;;4.50;1.13;;;;;;;18.95;49.92;98238.56;5025414;28;20033;-65
2023/11/03 08:40:22;;;;;;;5.38;1.50;;;;;;;18.95;50.50;98247.28;5026159;28;20032;-65
2023/11/03 08:42:49;;;;;;;7.60;2.08;;;;;;;18.96;51.59;98262.13;5025549;28;20022;-64
2023/11/03 08:45:15;;;;;;;7.90;2.00;;;;;;;18.95;51.83;98255.22;5025872;28;20064;-66
2023/11/03 08:47:41;;;;;;;7.20;1.73;;;;;;;18.99;52.04;98261.75;5025523;28;20026;-65
2023/11/03 08:50:11;;;;;;;6.05;1.92;;;;;;;19.01;52.16;98264.19;5025630;28;20509;-68
2023/11/03 08:52:37;;;;;;;8.65;1.80;;;;;;;18.99;52.40;98269.66;5025116;28;20386;-66
2023/11/03 08:55:06;;;;;;;5.78;1.60;;;;;;;18.99;52.26;98272.31;5007709;28;20370;-65
2023/11/03 08:57:35;;;;;;;8.07;1.70;;;;;;;19.02;52.18;98271.88;5025996;28;20484;-65
2023/11/03 09:00:15;;;;;;;6.47;1.63;;;;;;;19.03;52.17;98283.28;5025498;28;20033;-65
2023/11/03 09:02:48;;;;;;;6.07;1.60;;;;;;;19.02;51.95;98279.00;5025376;28;20036;-66
2023/11/03 09:05:13;;;;;;;8.27;1.60;;;;;;;19.05;51.62;98273.34;5025882;28;20449;-65
2023/11/03 09:07:40;;;;;;;6.45;1.70;;;;;;;19.01;51.98;98278.19;5025095;28;20025;-65
2023/11/03 09:10:07;;;;;;;4.90;1.60;;;;;;;19.06;51.79;98288.19;5022626;28;20048;-63
2023/11/03 09:12:34;;;;;;;6.45;1.80;;;;;;;19.08;51.31;98278.25;5020950;28;20033;-65
2023/11/03 09:15:00;;;;;;;8.02;1.83;;;;;;;19.14;51.26;98279.31;5025119;28;20033;-66
2023/11/03 09:17:27;;;;;;;8.48;1.95;;;;;;;19.14;51.08;98285.38;5024480;28;20040;-66
2023/11/03 09:19:53;;;;;;;7.53;1.60;;;;;;;19.14;50.90;98298.59;5024669;28;20025;-65
2023/11/03 09:22:18;;;;;;;5.38;1.20;;;;;;;19.14;50.73;98288.03;5024942;28;20371;-66
2023/11/03 09:24:43;;;;;;;7.97;1.88;;;;;;;19.15;50.55;98294.13;5026219;28;20034;-66
2023/11/03 09:27:09;;;;;;;6.10;1.70;;;;;;;19.14;50.46;98298.59;5024843;28;20457;-68
2023/11/03 09:29:34;;;;;;;6.00;1.30;;;;;;;19.17;50.44;98289.47;5024723;28;20025;-67
2023/11/03 09:32:00;;;;;;;5.18;1.30;;;;;;;19.16;50.57;98287.84;5024855;28;20088;-67
2023/11/03 09:34:25;;;;;;;7.63;1.35;;;;;;;19.18;50.57;98301.66;5028887;28;20474;-71
2023/11/03 09:36:51;;;;;;;7.47;1.60;;;;;;;19.16;50.58;98307.13;5028876;28;20025;-67
2023/11/03 09:39:16;;;;;;;6.07;1.40;;;;;;;19.16;50.26;98299.19;5028771;28;20018;-67
2023/11/03 09:41:49;;;;;;;4.40;1.50;;;;;;;19.15;50.44;98302.03;5028547;28;20108;-67
2023/11/03 09:44:15;;;;;;;6.67;1.50;;;;;;;19.18;50.19;98304.28;5028006;28;20037;-68
2023/11/03 09:46:40;;;;;;;5.97;1.40;;;;;;;19.16;50.27;98309.75;5028385;28;20353;-66
2023/11/03 09:49:06;;;;;;;4.05;1.27;;;;;;;19.17;50.14;98307.97;5028569;28;20031;-67
2023/11/03 09:51:34;;;;;;;5.22;1.50;;;;;;;19.23;50.15;98322.19;5027778;28;20480;-69
2023/11/03 09:54:04;;;;;;;5.00;1.30;;;;;;;19.28;50.20;98323.28;5027530;28;20136;-68
2023/11/03 09:56:32;;;;;;;5.47;1.33;;;;;;;19.33;49.82;98330.63;5026608;28;20386;-69
2023/11/03 09:58:57;;;;;;;4.40;1.30;;;;;;;19.36;49.59;98340.78;5027635;28;20034;-69
2023/11/03 10:01:23;;;;;;;5.68;1.27;;;;;;;19.37;49.74;98345.03;5028283;28;20035;-69
2023/11/03 10:03:49;;;;;;;7.15;1.30;;;;;;;19.34;49.67;98342.78;5028999;28;20048;-70
2023/11/03 10:06:15;;;;;;;5.22;1.20;;;;;;;19.34;49.69;98343.63;5029294;28;20466;-70
2023/11/03 10:08:44;;;;;;;5.30;1.15;;;;;;;19.32;49.51;98352.75;5028721;28;20061;-71
2023/11/03 10:11:09;;;;;;;7.50;1.60;;;;;;;19.34;49.61;98361.28;5029147;28;20515;-70
2023/11/03 10:13:37;;;;;;;6.55;1.60;;;;;;;19.31;49.47;98351.09;5028852;28;20034;-71
2023/11/03 10:16:04;;;;;;;6.30;1.50;;;;;;;19.28;49.39;98354.13;5028957;28;20385;-66
2023/11/03 10:18:30;;;;;;;5.78;1.42;;;;;;;19.27;49.55;98355.94;5028555;28;20052;-69
2023/11/03 10:20:56;;;;;;;5.15;1.30;;;;;;;19.27;49.73;98352.50;5028587;28;20128;-69
2023/11/03 10:23:22;;;;;;;6.47;1.30;;;;;;;19.25;49.80;98360.63;5028278;28;20451;-68
2023/11/03 10:25:48;;;;;;;6.72;1.58;;;;;;;19.25;49.62;98359.78;5028791;28;20041;-68
2023/11/03 10:28:14;;;;;;;7.35;1.98;;;;;;;19.25;49.52;98359.78;5028794;28;20045;-67
2023/11/03 10:30:39;;;;;;;7.38;1.70;;;;;;;19.24;49.62;98360.81;5028698;28;20033;-67
2023/11/03 10:33:06;;;;;;;5.15;1.20;;;;;;;19.23;49.54;98372.38;5028747;28;20366;-67
2023/11/03 10:35:32;;;;;;;4.25;1.27;;;;;;;19.21;49.76;98391.03;5028371;28;20041;-69
2023/11/03 10:37:58;;;;;;;5.80;1.38;;;;;;;19.17;49.95;98382.69;5028512;28;20033;-68
2023/11/03 10:40:23;;;;;;;4.88;1.35;;;;;;;19.16;49.71;98382.88;5028179;28;20089;-67
2023/11/03 10:42:51;;;;;;;5.60;1.45;;;;;;;19.14;49.88;98390.19;5028238;28;20140;-68
2023/11/03 10:45:23;;;;;;;5.47;1.20;;;;;;;19.14;49.58;98395.47;5026439;28;20033;-68
2023/11/03 10:47:57;;;;;;;5.65;1.35;;;;;;;19.15;49.67;98387.34;5028103;28;20083;-69
2023/11/03 10:50:33;;;;;;;5.05;1.20;;;;;;;19.15;49.69;98394.44;5026466;28;20095;-68
2023/11/03 10:53:23;;;;;;;4.78;1.20;;;;;;;19.13;49.62;98391.19;5026958;28;20128;-68
2023/11/03 10:55:54;;;;;;;4.50;1.30;;;;;;;19.12;49.82;98386.91;5027375;28;20116;-68
2023/11/03 10:58:20;;;;;;;4.93;1.27;;;;;;;19.11;49.93;98396.66;5026955;28;20044;-68
2023/11/03 11:01:17;;;;;;;5.50;1.13;;;;;;;19.09;49.87;98396.03;5026662;28;20390;-67
2023/11/03 11:03:46;;;;;;;7.30;1.20;;;;;;;19.08;50.14;98394.38;4992663;28;20039;-69
2023/11/03 11:06:44;;;;;;;7.50;1.50;;;;;;;19.08;50.15;98393.59;5027446;28;20038;-68
2023/11/03 11:09:43;;;;;;;7.32;1.20;;;;;;;19.09;50.12;98398.66;5012192;28;20036;-68
2023/11/03 11:12:09;;;;;;;2.88;0.85;;;;;;;19.10;50.20;98397.66;4977788;28;20072;-69
2023/11/03 11:14:40;;;;;;;6.15;1.08;;;;;;;19.08;50.02;98390.94;5027287;28;20048;-69
2023/11/03 11:17:36;;;;;;;4.00;1.20;;;;;;;19.07;50.40;98408.59;5027505;28;20402;-68
2023/11/03 11:20:08;;;;;;;5.63;1.30;;;;;;;19.07;50.30;98410.41;5027251;28;20026;-68
2023/11/03 11:22:39;;;;;;;3.78;1.20;;;;;;;19.06;50.45;98408.78;5027284;28;20428;-69
2023/11/03 11:25:07;;;;;;;7.32;1.40;;;;;;;19.08;50.32;98417.34;5026755;28;20110;-69
2023/11/03 11:27:35;;;;;;;6.07;1.10;;;;;;;19.07;50.34;98410.41;5027326;28;20389;-69
2023/11/03 11:30:12;;;;;;;5.65;1.45;;;;;;;19.08;50.33;98419.97;5027606;28;20034;-69
2023/11/03 11:32:37;;;;;;;4.22;1.00;;;;;;;19.06;50.44;98412.25;5027400;28;20025;-69